Time,TemperatureF,DewpointF,PressureIn,WindDirection,WindDirectionDegrees,WindSpeedMPH,WindSpeedGustMPH,Humidity,HourlyPrecipIn,Conditions,Clouds,dailyrainin,SoftwareType,DateUTC
2013-02-11 00:00:00,14.2,9.0,30.28,ENE,76,1.0,2.0,81,0.00,,,0.02,weatherlink.com 1.10,2013-02-11 05:00:00,
2013-02-11 00:15:00,14.5,10.0,30.27,NE,51,0.0,2.0,81,0.00,,,0.00,weatherlink.com 1.10,2013-02-11 05:15:00,
2013-02-11 00:30:00,15.3,10.0,30.25,NNE,22,0.0,3.0,80,0.00,,,0.00,weatherlink.com 1.10,2013-02-11 05:30:00,
2013-02-11 00:45:00,15.6,11.0,30.25,NE,34,0.0,1.0,80,0.00,,,0.00,weatherlink.com 1.10,2013-02-11 05:45:00,
2013-02-11 01:00:00,16.5,11.0,30.25,West,271,0.0,2.0,79,0.00,,,0.00,weatherlink.com 1.10,2013-02-11 06:00:00,
2013-02-11 01:15:00,17.4,11.0,30.24,SE,132,0.0,1.0,77,0.00,,,0.00,weatherlink.com 1.10,2013-02-11 06:15:00,
2013-02-11 01:30:00,17.7,12.0,30.23,West,276,0.0,2.0,78,0.00,,,0.00,weatherlink.com 1.10,2013-02-11 06:30:00,
2013-02-11 01:45:00,18.3,12.0,30.22,West,259,0.0,1.0,77,0.00,,,0.00,weatherlink.com 1.10,2013-02-11 06:45:00,
2013-02-11 02:00:00,23.7,13.0,30.22,SE,141,3.0,8.0,65,0.00,,,0.00,weatherlink.com 1.10,2013-02-11 07:00:00,
2013-02-11 02:16:00,26.3,14.0,30.21,South,170,5.0,9.0,59,0.00,,,0.00,weatherlink.com 1.10,2013-02-11 07:16:00,
2013-02-11 02:31:00,26.8,14.0,30.20,SSE,162,5.0,9.0,59,0.00,,,0.00,weatherlink.com 1.10,2013-02-11 07:31:00,
2013-02-11 02:46:00,27.7,15.0,30.20,SE,129,3.0,10.0,60,0.00,,,0.00,weatherlink.com 1.10,2013-02-11 07:46:00,
2013-02-11 03:01:00,28.1,16.0,30.18,SE,136,2.0,10.0,60,0.00,,,0.00,weatherlink.com 1.10,2013-02-11 08:01:00,
2013-02-11 03:16:00,28.5,16.0,30.17,SSE,152,2.0,7.0,60,0.00,,,0.00,weatherlink.com 1.10,2013-02-11 08:16:00,
2013-02-11 03:31:00,28.8,17.0,30.16,ENE,72,2.0,7.0,61,0.00,,,0.00,weatherlink.com 1.10,2013-02-11 08:31:00,
2013-02-11 03:46:00,29.1,17.0,30.15,SSE,160,4.0,8.0,62,0.00,,,0.00,weatherlink.com 1.10,2013-02-11 08:46:00,
2013-02-11 04:01:00,29.4,18.0,30.14,SSE,156,4.0,13.0,62,0.00,,,0.00,weatherlink.com 1.10,2013-02-11 09:01:00,
2013-02-11 04:16:00,29.7,18.0,30.14,SSE,155,7.0,15.0,63,0.00,,,0.00,weatherlink.com 1.10,2013-02-11 09:16:00,
2013-02-11 04:31:00,29.9,19.0,30.13,SSE,149,7.0,14.0,64,0.00,,,0.00,weatherlink.com 1.10,2013-02-11 09:31:00,
2013-02-11 04:46:00,30.2,19.0,30.13,SE,129,7.0,13.0,64,0.00,,,0.00,weatherlink.com 1.10,2013-02-11 09:46:00,
2013-02-11 05:01:00,30.4,19.0,30.13,SE,141,6.0,14.0,64,0.00,,,0.00,weatherlink.com 1.10,2013-02-11 10:01:00,
2013-02-11 05:16:00,30.5,20.0,30.12,South,191,3.0,16.0,64,0.00,,,0.00,weatherlink.com 1.10,2013-02-11 10:16:00,
2013-02-11 05:31:00,30.6,20.0,30.10,South,176,6.0,14.0,65,0.00,,,0.00,weatherlink.com 1.10,2013-02-11 10:31:00,
2013-02-11 05:46:00,30.6,21.0,30.09,SE,146,10.0,16.0,68,0.00,,,0.00,weatherlink.com 1.10,2013-02-11 10:46:00,
2013-02-11 06:01:00,30.8,22.0,30.08,SSE,166,6.0,18.0,70,0.00,,,0.00,weatherlink.com 1.10,2013-02-11 11:01:00,
2013-02-11 06:16:00,31.0,22.0,30.08,South,180,5.0,18.0,69,0.00,,,0.00,weatherlink.com 1.10,2013-02-11 11:16:00,
2013-02-11 06:31:00,31.4,23.0,30.07,SSE,163,12.0,17.0,71,0.00,,,0.00,weatherlink.com 1.10,2013-02-11 11:31:00,
2013-02-11 06:46:00,31.4,24.0,30.06,East,93,12.0,18.0,74,0.00,,,0.00,weatherlink.com 1.10,2013-02-11 11:46:00,
2013-02-11 07:01:00,30.9,26.0,30.05,SSE,165,7.0,14.0,81,0.00,,,0.00,weatherlink.com 1.10,2013-02-11 12:01:00,
2013-02-11 07:16:00,30.4,27.0,30.04,ESE,122,8.0,17.0,86,0.00,,,0.00,weatherlink.com 1.10,2013-02-11 12:16:00,
2013-02-11 07:31:00,30.2,27.0,30.03,SE,146,5.0,16.0,89,0.00,,,0.00,weatherlink.com 1.10,2013-02-11 12:31:00,
2013-02-11 07:46:00,30.1,28.0,30.03,SSE,152,7.0,20.0,90,0.00,,,0.00,weatherlink.com 1.10,2013-02-11 12:46:00,
2013-02-11 08:01:00,30.7,28.0,30.02,SSE,165,4.0,20.0,91,0.00,,,0.00,weatherlink.com 1.10,2013-02-11 13:01:00,
2013-02-11 08:17:00,31.2,29.0,30.01,SE,127,7.0,14.0,92,0.00,,,0.00,weatherlink.com 1.10,2013-02-11 13:17:00,
2013-02-11 08:32:00,32.1,30.0,30.00,ESE,119,7.0,20.0,91,0.00,,,0.00,weatherlink.com 1.10,2013-02-11 13:32:00,
2013-02-11 08:47:00,32.4,30.0,30.00,SSE,162,3.0,14.0,91,0.00,,,0.00,weatherlink.com 1.10,2013-02-11 13:47:00,
2013-02-11 09:02:00,33.0,31.0,29.98,South,191,5.0,19.0,92,0.00,,,0.00,weatherlink.com 1.10,2013-02-11 14:02:00,
2013-02-11 09:17:00,33.4,31.0,29.97,SSE,158,8.0,23.0,91,0.00,,,0.00,weatherlink.com 1.10,2013-02-11 14:17:00,
2013-02-11 09:32:00,33.3,31.0,29.95,SSE,167,9.0,22.0,92,0.00,,,0.00,weatherlink.com 1.10,2013-02-11 14:32:00,
2013-02-11 09:47:00,33.6,32.0,29.94,SSE,155,10.0,20.0,92,0.00,,,0.00,weatherlink.com 1.10,2013-02-11 14:47:00,
2013-02-11 10:02:00,33.6,32.0,29.93,SSE,166,14.0,17.0,92,0.00,,,0.00,weatherlink.com 1.10,2013-02-11 15:02:00,
2013-02-11 10:17:00,33.7,32.0,29.92,SSE,150,6.0,17.0,93,0.00,,,0.00,weatherlink.com 1.10,2013-02-11 15:17:00,
2013-02-11 10:32:00,34.2,33.0,29.91,SE,143,7.0,16.0,94,0.00,,,0.00,weatherlink.com 1.10,2013-02-11 15:32:00,
2013-02-11 10:47:00,35.1,33.0,29.88,SE,136,7.0,17.0,93,0.01,,,0.01,weatherlink.com 1.10,2013-02-11 15:47:00,
2013-02-11 11:02:00,35.5,33.0,29.89,SSE,163,14.0,20.0,92,0.01,,,0.01,weatherlink.com 1.10,2013-02-11 16:02:00,
2013-02-11 11:17:00,35.6,34.0,29.86,SSW,197,9.0,19.0,92,0.02,,,0.02,weatherlink.com 1.10,2013-02-11 16:17:00,
2013-02-11 11:32:00,36.4,34.0,29.85,South,183,7.0,18.0,92,0.02,,,0.02,weatherlink.com 1.10,2013-02-11 16:32:00,
2013-02-11 11:47:00,38.0,35.0,29.85,East,97,4.0,13.0,89,0.01,,,0.02,weatherlink.com 1.10,2013-02-11 16:47:00,
2013-02-11 12:02:00,38.2,35.0,29.84,ESE,112,11.0,15.0,89,0.01,,,0.02,weatherlink.com 1.10,2013-02-11 17:02:00,
2013-02-11 12:17:00,39.2,36.0,29.82,SSE,159,6.0,14.0,88,0.00,,,0.02,weatherlink.com 1.10,2013-02-11 17:17:00,
2013-02-11 12:32:00,39.3,36.0,29.81,SE,146,4.0,16.0,87,0.00,,,0.02,weatherlink.com 1.10,2013-02-11 17:32:00,
2013-02-11 12:47:00,39.4,36.0,29.80,SE,131,4.0,13.0,87,0.00,,,0.02,weatherlink.com 1.10,2013-02-11 17:47:00,
2013-02-11 13:02:00,39.6,36.0,29.78,SE,131,5.0,16.0,86,0.00,,,0.02,weatherlink.com 1.10,2013-02-11 18:02:00,
2013-02-11 13:18:00,41.5,37.0,29.77,SE,134,6.0,15.0,84,0.00,,,0.02,weatherlink.com 1.10,2013-02-11 18:18:00,
2013-02-11 13:33:00,41.7,37.0,29.77,SSW,193,7.0,13.0,84,0.00,,,0.02,weatherlink.com 1.10,2013-02-11 18:33:00,
2013-02-11 13:48:00,41.8,37.0,29.75,SSE,150,5.0,13.0,84,0.00,,,0.02,weatherlink.com 1.10,2013-02-11 18:48:00,
2013-02-11 14:03:00,42.2,38.0,29.74,SE,136,11.0,14.0,84,0.00,,,0.02,weatherlink.com 1.10,2013-02-11 19:03:00,
2013-02-11 14:18:00,42.6,38.0,29.72,SSE,150,5.0,15.0,83,0.00,,,0.02,weatherlink.com 1.10,2013-02-11 19:18:00,
2013-02-11 14:33:00,43.1,38.0,29.71,SSE,149,10.0,17.0,82,0.00,,,0.02,weatherlink.com 1.10,2013-02-11 19:33:00,
2013-02-11 14:48:00,42.6,38.0,29.71,South,180,4.0,15.0,83,0.00,,,0.02,weatherlink.com 1.10,2013-02-11 19:48:00,
2013-02-11 15:18:00,43.1,38.0,29.72,East,95,2.0,8.0,83,0.00,,,0.02,weatherlink.com 1.10,2013-02-11 20:18:00,
2013-02-11 15:33:00,44.1,38.0,29.72,SSE,147,2.0,8.0,79,0.00,,,0.02,weatherlink.com 1.10,2013-02-11 20:33:00,
2013-02-11 15:48:00,41.9,37.0,29.71,ESE,110,3.0,7.0,84,0.00,,,0.02,weatherlink.com 1.10,2013-02-11 20:48:00,
2013-02-11 16:03:00,41.3,37.0,29.70,East,97,3.0,7.0,86,0.00,,,0.02,weatherlink.com 1.10,2013-02-11 21:03:00,
2013-02-11 16:18:00,40.5,37.0,29.70,ESE,107,7.0,8.0,87,0.00,,,0.02,weatherlink.com 1.10,2013-02-11 21:18:00,
2013-02-11 16:33:00,39.8,37.0,29.69,ESE,110,1.0,6.0,89,0.00,,,0.02,weatherlink.com 1.10,2013-02-11 21:33:00,
2013-02-11 16:48:00,39.1,37.0,29.69,North,358,1.0,6.0,90,0.00,,,0.02,weatherlink.com 1.10,2013-02-11 21:48:00,
2013-02-11 17:03:00,38.6,36.0,29.68,ESE,113,1.0,6.0,91,0.00,,,0.02,weatherlink.com 1.10,2013-02-11 22:03:00,
2013-02-11 17:18:00,38.1,36.0,29.68,SSE,159,6.0,10.0,93,0.00,,,0.02,weatherlink.com 1.10,2013-02-11 22:18:00,
2013-02-11 17:33:00,37.9,36.0,29.67,WSW,238,1.0,9.0,94,0.00,,,0.02,weatherlink.com 1.10,2013-02-11 22:33:00,
2013-02-11 17:48:00,37.8,37.0,29.66,South,173,5.0,9.0,95,0.00,,,0.02,weatherlink.com 1.10,2013-02-11 22:48:00,
2013-02-11 18:03:00,37.9,37.0,29.66,ESE,122,3.0,11.0,95,0.00,,,0.02,weatherlink.com 1.10,2013-02-11 23:03:00,
2013-02-11 18:18:00,38.1,37.0,29.67,South,176,4.0,11.0,95,0.00,,,0.02,weatherlink.com 1.10,2013-02-11 23:18:00,
2013-02-11 18:33:00,38.3,37.0,29.67,SE,126,3.0,8.0,95,0.00,,,0.02,weatherlink.com 1.10,2013-02-11 23:33:00,
2013-02-11 18:48:00,38.1,37.0,29.67,ENE,61,0.0,3.0,95,0.00,,,0.02,weatherlink.com 1.10,2013-02-11 23:48:00,
2013-02-11 19:03:00,38.1,37.0,29.68,NW,323,0.0,4.0,96,0.00,,,0.02,weatherlink.com 1.10,2013-02-12 00:03:00,
2013-02-11 19:18:00,37.8,37.0,29.68,North,4,0.0,2.0,95,0.00,,,0.02,weatherlink.com 1.10,2013-02-12 00:18:00,
2013-02-11 19:33:00,37.9,37.0,29.66,ESE,113,3.0,5.0,96,0.00,,,0.02,weatherlink.com 1.10,2013-02-12 00:33:00,
2013-02-11 19:48:00,37.9,37.0,29.67,North,1,0.0,2.0,96,0.00,,,0.02,weatherlink.com 1.10,2013-02-12 00:48:00,
2013-02-11 20:03:00,37.6,37.0,29.67,NE,48,3.0,3.0,96,0.00,,,0.02,weatherlink.com 1.10,2013-02-12 01:03:00,
2013-02-11 20:18:00,37.3,36.0,29.68,ESE,105,0.0,1.0,96,0.00,,,0.02,weatherlink.com 1.10,2013-02-12 01:18:00,
2013-02-11 20:33:00,37.1,36.0,29.68,ESE,106,0.0,0.0,96,0.00,,,0.02,weatherlink.com 1.10,2013-02-12 01:33:00,
2013-02-11 20:48:00,37.6,37.0,29.71,NNW,336,2.0,9.0,96,0.01,,,0.03,weatherlink.com 1.10,2013-02-12 01:48:00,
2013-02-11 21:03:00,37.7,36.0,29.72,North,349,6.0,7.0,94,0.01,,,0.03,weatherlink.com 1.10,2013-02-12 02:03:00,
2013-02-11 21:18:00,38.2,36.0,29.71,NW,315,3.0,11.0,91,0.01,,,0.03,weatherlink.com 1.10,2013-02-12 02:18:00,
2013-02-11 21:33:00,37.9,36.0,29.72,NNW,337,2.0,4.0,91,0.01,,,0.03,weatherlink.com 1.10,2013-02-12 02:33:00,
2013-02-11 21:49:00,37.5,35.0,29.71,ESE,112,0.0,1.0,91,0.00,,,0.03,weatherlink.com 1.10,2013-02-12 02:49:00,
2013-02-11 22:03:00,37.0,35.0,29.71,SE,134,0.0,3.0,93,0.00,,,0.03,weatherlink.com 1.10,2013-02-12 03:03:00,
2013-02-11 22:18:00,36.1,35.0,29.71,SSE,150,1.0,2.0,94,0.00,,,0.03,weatherlink.com 1.10,2013-02-12 03:18:00,
2013-02-11 22:33:00,36.1,35.0,29.70,South,176,2.0,2.0,94,0.00,,,0.03,weatherlink.com 1.10,2013-02-12 03:33:00,
2013-02-11 22:48:00,35.7,34.0,29.70,SSW,212,1.0,1.0,94,0.00,,,0.03,weatherlink.com 1.10,2013-02-12 03:48:00,
2013-02-11 23:03:00,35.8,35.0,29.70,SE,136,1.0,2.0,95,0.00,,,0.03,weatherlink.com 1.10,2013-02-12 04:03:00,
2013-02-11 23:18:00,35.3,34.0,29.70,ESE,108,0.0,1.0,95,0.00,,,0.03,weatherlink.com 1.10,2013-02-12 04:18:00,
2013-02-11 23:33:00,34.9,34.0,29.70,South,188,1.0,2.0,95,0.00,,,0.03,weatherlink.com 1.10,2013-02-12 04:33:00,
2013-02-11 23:48:00,34.7,34.0,29.69,SE,134,0.0,2.0,96,0.00,,,0.03,weatherlink.com 1.10,2013-02-12 04:48:00,